sensor_id;sensor_type;location;lat;lon;timestamp;pressure;altitude;pressure_sealevel;temperature;humidity
15405;BME280;7801;48.124;11.590;2023-03-25T00:00:08;94925.78;;;10.44;77.41
15405;BME280;7801;48.124;11.590;2023-03-25T00:02:41;94929.72;;;10.47;77.40
15405;BME280;7801;48.124;11.590;2023-03-25T00:05:10;94921.62;;;10.52;76.71
15405;BME280;7801;48.124;11.590;2023-03-25T00:07:35;94921.72;;;10.38;76.68
15405;BME280;7801;48.124;11.590;2023-03-25T00:10:01;94910.72;;;10.31;76.53
15405;BME280;7801;48.124;11.590;2023-03-25T00:12:26;94915.84;;;10.27;77.90
15405;BME280;7801;48.124;11.590;2023-03-25T00:14:51;94906.59;;;10.39;76.55
15405;BME280;7801;48.124;11.590;2023-03-25T00:17:21;94898.56;;;10.30;77.22
15405;BME280;7801;48.124;11.590;2023-03-25T00:19:46;94895.25;;;10.24;77.23
15405;BME280;7801;48.124;11.590;2023-03-25T00:22:15;94897.22;;;10.19;76.82
15405;BME280;7801;48.124;11.590;2023-03-25T00:24:41;94904.75;;;10.25;77.22
15405;BME280;7801;48.124;11.590;2023-03-25T00:27:06;94895.44;;;10.28;76.48
15405;BME280;7801;48.124;11.590;2023-03-25T00:29:31;94901.87;;;10.36;76.18
15405;BME280;7801;48.124;11.590;2023-03-25T00:31:56;94896.22;;;10.28;76.53
15405;BME280;7801;48.124;11.590;2023-03-25T00:34:22;94889.72;;;10.35;75.56
15405;BME280;7801;48.124;11.590;2023-03-25T00:36:47;94894.28;;;10.20;76.02
15405;BME280;7801;48.124;11.590;2023-03-25T00:39:12;94895.91;;;10.30;76.07
15405;BME280;7801;48.124;11.590;2023-03-25T00:41:38;94894.87;;;10.17;76.29
15405;BME280;7801;48.124;11.590;2023-03-25T00:44:06;94892.88;;;10.23;75.57
15405;BME280;7801;48.124;11.590;2023-03-25T00:46:32;94879.53;;;10.28;74.76
15405;BME280;7801;48.124;11.590;2023-03-25T00:48:58;94869.69;;;10.28;74.79
15405;BME280;7801;48.124;11.590;2023-03-25T00:51:26;94883.47;;;10.17;75.12
15405;BME280;7801;48.124;11.590;2023-03-25T00:53:54;94877.59;;;10.20;74.93
15405;BME280;7801;48.124;11.590;2023-03-25T00:56:22;94887.16;;;10.29;74.30
15405;BME280;7801;48.124;11.590;2023-03-25T00:58:48;94891.12;;;10.41;74.28
15405;BME280;7801;48.124;11.590;2023-03-25T01:01:15;94882.56;;;10.44;74.12
15405;BME280;7801;48.124;11.590;2023-03-25T01:03:42;94878.13;;;10.30;74.60
15405;BME280;7801;48.124;11.590;2023-03-25T01:06:12;94878.13;;;10.30;73.76
15405;BME280;7801;48.124;11.590;2023-03-25T01:08:39;94868.34;;;10.40;73.72
15405;BME280;7801;48.124;11.590;2023-03-25T01:11:05;94884.22;;;10.31;73.81
15405;BME280;7801;48.124;11.590;2023-03-25T01:13:31;94867.53;;;10.30;73.43
15405;BME280;7801;48.124;11.590;2023-03-25T01:15:56;94870.25;;;10.39;73.32
15405;BME280;7801;48.124;11.590;2023-03-25T01:18:21;94866.25;;;10.28;73.15
15405;BME280;7801;48.124;11.590;2023-03-25T01:20:47;94858.72;;;10.21;74.54
15405;BME280;7801;48.124;11.590;2023-03-25T01:23:12;94882.59;;;10.21;73.54
15405;BME280;7801;48.124;11.590;2023-03-25T01:25:38;94876.63;;;10.38;73.18
15405;BME280;7801;48.124;11.590;2023-03-25T01:28:04;94884.16;;;10.45;73.19
15405;BME280;7801;48.124;11.590;2023-03-25T01:30:30;94874.88;;;10.33;73.83
15405;BME280;7801;48.124;11.590;2023-03-25T01:32:55;94868.22;;;10.45;73.20
15405;BME280;7801;48.124;11.590;2023-03-25T01:35:21;94876.31;;;10.40;73.07
15405;BME280;7801;48.124;11.590;2023-03-25T01:37:47;94881.69;;;10.48;72.84
15405;BME280;7801;48.124;11.590;2023-03-25T01:40:18;94870.28;;;10.48;72.21
15405;BME280;7801;48.124;11.590;2023-03-25T01:42:44;94865.03;;;10.56;72.18
15405;BME280;7801;48.124;11.590;2023-03-25T01:45:29;94871.06;;;10.48;72.16
15405;BME280;7801;48.124;11.590;2023-03-25T01:48:00;94869.19;;;10.49;72.93
15405;BME280;7801;48.124;11.590;2023-03-25T01:50:29;94872.50;;;10.54;71.67
15405;BME280;7801;48.124;11.590;2023-03-25T01:52:57;94864.16;;;10.39;72.58
15405;BME280;7801;48.124;11.590;2023-03-25T01:55:23;94875.47;;;10.53;72.56
15405;BME280;7801;48.124;11.590;2023-03-25T01:57:53;94868.72;;;10.47;72.22
15405;BME280;7801;48.124;11.590;2023-03-25T02:00:21;94861.31;;;10.57;71.86
15405;BME280;7801;48.124;11.590;2023-03-25T02:02:47;94871.13;;;10.57;71.63
15405;BME280;7801;48.124;11.590;2023-03-25T02:05:26;94866.69;;;10.75;71.30
15405;BME280;7801;48.124;11.590;2023-03-25T02:07:55;94867.25;;;10.63;72.07
15405;BME280;7801;48.124;11.590;2023-03-25T02:10:22;94871.59;;;10.59;71.37
15405;BME280;7801;48.124;11.590;2023-03-25T02:12:47;94861.78;;;10.59;71.06
15405;BME280;7801;48.124;11.590;2023-03-25T02:15:16;94868.59;;;10.52;70.76
15405;BME280;7801;48.124;11.590;2023-03-25T02:18:02;94860.34;;;10.53;71.27
15405;BME280;7801;48.124;11.590;2023-03-25T02:28:53;94845.81;;;10.51;71.21
15405;BME280;7801;48.124;11.590;2023-03-25T02:40:27;94843.91;;;10.20;71.12
15405;BME280;7801;48.124;11.590;2023-03-25T02:43:02;94851.19;;;10.15;70.84
15405;BME280;7801;48.124;11.590;2023-03-25T02:45:35;94856.78;;;10.13;71.03
15405;BME280;7801;48.124;11.590;2023-03-25T02:48:13;94857.34;;;10.24;70.77
15405;BME280;7801;48.124;11.590;2023-03-25T02:50:47;94864.28;;;10.33;69.93
15405;BME280;7801;48.124;11.590;2023-03-25T02:53:21;94858.34;;;10.14;70.00
15405;BME280;7801;48.124;11.590;2023-03-25T02:55:48;94848.34;;;10.11;70.34
15405;BME280;7801;48.124;11.590;2023-03-25T02:58:16;94851.78;;;10.12;69.81
15405;BME280;7801;48.124;11.590;2023-03-25T03:00:43;94860.09;;;10.19;70.34
15405;BME280;7801;48.124;11.590;2023-03-25T03:03:10;94853.41;;;10.21;69.98
15405;BME280;7801;48.124;11.590;2023-03-25T03:05:44;94858.94;;;10.11;69.81
15405;BME280;7801;48.124;11.590;2023-03-25T03:08:25;94866.00;;;10.16;69.63
15405;BME280;7801;48.124;11.590;2023-03-25T03:11:14;94856.59;;;10.10;70.32
15405;BME280;7801;48.124;11.590;2023-03-25T03:24:30;94845.12;;;9.78;73.25
15405;BME280;7801;48.124;11.590;2023-03-25T03:29:33;94836.03;;;9.71;71.79
15405;BME280;7801;48.124;11.590;2023-03-25T03:32:06;94840.44;;;9.75;71.67
15405;BME280;7801;48.124;11.590;2023-03-25T03:34:43;94845.75;;;9.75;71.36
15405;BME280;7801;48.124;11.590;2023-03-25T03:37:13;94842.63;;;9.59;71.18
15405;BME280;7801;48.124;11.590;2023-03-25T03:39:41;94838.09;;;9.74;72.18
15405;BME280;7801;48.124;11.590;2023-03-25T03:42:17;94850.38;;;9.70;71.28
15405;BME280;7801;48.124;11.590;2023-03-25T03:44:49;94851.06;;;9.61;72.20
15405;BME280;7801;48.124;11.590;2023-03-25T03:47:23;94855.00;;;9.64;72.20
15405;BME280;7801;48.124;11.590;2023-03-25T03:49:57;94849.94;;;9.54;72.41
15405;BME280;7801;48.124;11.590;2023-03-25T03:52:28;94843.13;;;9.61;73.46
15405;BME280;7801;48.124;11.590;2023-03-25T03:55:02;94855.97;;;9.68;72.55
15405;BME280;7801;48.124;11.590;2023-03-25T03:57:33;94858.75;;;9.49;72.99
15405;BME280;7801;48.124;11.590;2023-03-25T04:00:04;94865.31;;;9.52;72.92
15405;BME280;7801;48.124;11.590;2023-03-25T04:02:49;94875.53;;;9.45;72.88
15405;BME280;7801;48.124;11.590;2023-03-25T04:05:17;94881.50;;;9.37;74.05
15405;BME280;7801;48.124;11.590;2023-03-25T04:10:26;94891.31;;;9.36;73.50
15405;BME280;7801;48.124;11.590;2023-03-25T04:12:59;94885.56;;;9.34;72.76
15405;BME280;7801;48.124;11.590;2023-03-25T04:15:28;94886.34;;;9.35;73.65
15405;BME280;7801;48.124;11.590;2023-03-25T04:17:53;94887.13;;;9.35;73.22
15405;BME280;7801;48.124;11.590;2023-03-25T04:20:22;94888.75;;;9.45;73.01
15405;BME280;7801;48.124;11.590;2023-03-25T04:22:50;94883.47;;;9.45;72.26
15405;BME280;7801;48.124;11.590;2023-03-25T04:25:17;94888.97;;;9.35;72.81
15405;BME280;7801;48.124;11.590;2023-03-25T04:27:42;94895.22;;;9.39;72.65
15405;BME280;7801;48.124;11.590;2023-03-25T04:30:14;94895.53;;;9.37;72.33
15405;BME280;7801;48.124;11.590;2023-03-25T04:32:42;94899.47;;;9.26;71.51
15405;BME280;7801;48.124;11.590;2023-03-25T04:35:14;94889.78;;;9.35;71.40
15405;BME280;7801;48.124;11.590;2023-03-25T04:37:41;94897.22;;;9.33;71.36
15405;BME280;7801;48.124;11.590;2023-03-25T04:40:13;94887.22;;;9.30;70.88
15405;BME280;7801;48.124;11.590;2023-03-25T04:42:40;94888.66;;;9.36;71.38
15405;BME280;7801;48.124;11.590;2023-03-25T04:45:08;94892.72;;;9.34;71.27
15405;BME280;7801;48.124;11.590;2023-03-25T04:47:38;94886.00;;;9.36;70.97
15405;BME280;7801;48.124;11.590;2023-03-25T04:50:17;94888.50;;;9.33;71.04
15405;BME280;7801;48.124;11.590;2023-03-25T04:52:43;94902.22;;;9.35;70.95
15405;BME280;7801;48.124;11.590;2023-03-25T04:55:11;94913.56;;;9.49;70.51
15405;BME280;7801;48.124;11.590;2023-03-25T04:57:36;94910.53;;;9.42;69.32
15405;BME280;7801;48.124;11.590;2023-03-25T05:00:02;94904.53;;;9.36;69.85
15405;BME280;7801;48.124;11.590;2023-03-25T05:02:29;94899.94;;;9.42;70.11
15405;BME280;7801;48.124;11.590;2023-03-25T05:04:55;94892.78;;;9.56;69.95
15405;BME280;7801;48.124;11.590;2023-03-25T05:07:26;94897.38;;;9.50;69.52
15405;BME280;7801;48.124;11.590;2023-03-25T05:09:53;94882.47;;;9.54;71.03
15405;BME280;7801;48.124;11.590;2023-03-25T05:12:21;94890.91;;;9.43;70.49
15405;BME280;7801;48.124;11.590;2023-03-25T05:14:46;94893.38;;;9.39;70.66
15405;BME280;7801;48.124;11.590;2023-03-25T05:17:11;94883.28;;;9.41;70.66
15405;BME280;7801;48.124;11.590;2023-03-25T05:19:37;94895.22;;;9.39;70.52
15405;BME280;7801;48.124;11.590;2023-03-25T05:22:02;94902.87;;;9.54;69.96
15405;BME280;7801;48.124;11.590;2023-03-25T05:24:28;94894.16;;;9.53;70.17
15405;BME280;7801;48.124;11.590;2023-03-25T05:26:54;94897.66;;;9.62;69.80
15405;BME280;7801;48.124;11.590;2023-03-25T05:29:19;94883.03;;;9.65;69.49
15405;BME280;7801;48.124;11.590;2023-03-25T05:31:45;94890.09;;;9.70;68.62
15405;BME280;7801;48.124;11.590;2023-03-25T05:34:13;94904.63;;;9.72;68.29
15405;BME280;7801;48.124;11.590;2023-03-25T05:36:38;94918.34;;;9.60;69.01
15405;BME280;7801;48.124;11.590;2023-03-25T05:39:04;94909.16;;;9.44;69.92
15405;BME280;7801;48.124;11.590;2023-03-25T05:41:30;94918.56;;;9.50;69.49
15405;BME280;7801;48.124;11.590;2023-03-25T05:44:03;94922.50;;;9.53;69.86
15405;BME280;7801;48.124;11.590;2023-03-25T05:46:29;94919.16;;;9.47;70.13
15405;BME280;7801;48.124;11.590;2023-03-25T05:48:55;94926.88;;;9.57;70.04
15405;BME280;7801;48.124;11.590;2023-03-25T05:51:25;94932.66;;;9.59;69.38
15405;BME280;7801;48.124;11.590;2023-03-25T05:53:51;94922.47;;;9.67;69.83
15405;BME280;7801;48.124;11.590;2023-03-25T05:56:19;94920.94;;;9.52;69.50
15405;BME280;7801;48.124;11.590;2023-03-25T05:58:46;94925.22;;;9.61;70.14
15405;BME280;7801;48.124;11.590;2023-03-25T06:01:12;94927.41;;;9.46;70.03
15405;BME280;7801;48.124;11.590;2023-03-25T06:03:39;94936.03;;;9.51;69.48
15405;BME280;7801;48.124;11.590;2023-03-25T06:06:06;94934.56;;;9.45;69.57
15405;BME280;7801;48.124;11.590;2023-03-25T06:08:48;94932.56;;;9.64;69.32
15405;BME280;7801;48.124;11.590;2023-03-25T06:11:15;94940.91;;;9.72;69.45
15405;BME280;7801;48.124;11.590;2023-03-25T06:13:41;94957.78;;;9.62;69.11
15405;BME280;7801;48.124;11.590;2023-03-25T06:16:21;94954.63;;;9.60;69.15
15405;BME280;7801;48.124;11.590;2023-03-25T06:18:48;94959.16;;;9.59;69.75
15405;BME280;7801;48.124;11.590;2023-03-25T06:21:21;94955.81;;;9.40;68.26
15405;BME280;7801;48.124;11.590;2023-03-25T06:23:48;94955.06;;;9.53;66.38
15405;BME280;7801;48.124;11.590;2023-03-25T06:26:17;94964.47;;;9.46;66.95
15405;BME280;7801;48.124;11.590;2023-03-25T06:28:42;94967.69;;;9.43;65.93
15405;BME280;7801;48.124;11.590;2023-03-25T06:31:16;94974.88;;;9.56;66.07
15405;BME280;7801;48.124;11.590;2023-03-25T06:33:42;94975.25;;;9.49;65.35
15405;BME280;7801;48.124;11.590;2023-03-25T06:36:09;94981.22;;;9.41;64.14
15405;BME280;7801;48.124;11.590;2023-03-25T06:38:36;94983.28;;;9.44;63.17
15405;BME280;7801;48.124;11.590;2023-03-25T06:41:01;94983.69;;;9.51;62.69
15405;BME280;7801;48.124;11.590;2023-03-25T06:43:26;94983.66;;;9.38;64.10
15405;BME280;7801;48.124;11.590;2023-03-25T06:45:52;94997.78;;;9.60;62.75
15405;BME280;7801;48.124;11.590;2023-03-25T06:48:17;95015.72;;;9.36;62.76
15405;BME280;7801;48.124;11.590;2023-03-25T06:50:42;95011.53;;;9.35;63.57
15405;BME280;7801;48.124;11.590;2023-03-25T06:53:09;95001.31;;;9.42;63.67
15405;BME280;7801;48.124;11.590;2023-03-25T06:55:35;95002.69;;;9.26;63.68
15405;BME280;7801;48.124;11.590;2023-03-25T06:58:04;95001.91;;;9.25;64.34
15405;BME280;7801;48.124;11.590;2023-03-25T07:00:30;95015.72;;;9.22;64.89
15405;BME280;7801;48.124;11.590;2023-03-25T07:02:56;95011.13;;;9.14;65.79
15405;BME280;7801;48.124;11.590;2023-03-25T07:05:23;95018.34;;;9.22;67.65
15405;BME280;7801;48.124;11.590;2023-03-25T07:07:48;95024.28;;;9.47;66.06
15405;BME280;7801;48.124;11.590;2023-03-25T07:10:14;95019.16;;;9.23;66.88
15405;BME280;7801;48.124;11.590;2023-03-25T07:12:39;95024.16;;;9.24;67.10
15405;BME280;7801;48.124;11.590;2023-03-25T07:15:05;95021.47;;;9.11;67.77
15405;BME280;7801;48.124;11.590;2023-03-25T07:17:31;95014.94;;;9.22;67.86
15405;BME280;7801;48.124;11.590;2023-03-25T07:19:56;95021.41;;;9.29;67.59
15405;BME280;7801;48.124;11.590;2023-03-25T07:22:21;95026.78;;;9.24;68.22
15405;BME280;7801;48.124;11.590;2023-03-25T07:24:47;95038.47;;;9.37;67.55
15405;BME280;7801;48.124;11.590;2023-03-25T07:27:13;95034.81;;;9.19;68.57
15405;BME280;7801;48.124;11.590;2023-03-25T07:29:39;95035.00;;;9.09;69.45
15405;BME280;7801;48.124;11.590;2023-03-25T07:32:05;95044.03;;;9.22;68.35
15405;BME280;7801;48.124;11.590;2023-03-25T07:34:30;95061.78;;;9.21;68.96
15405;BME280;7801;48.124;11.590;2023-03-25T07:36:56;95049.09;;;9.05;69.75
15405;BME280;7801;48.124;11.590;2023-03-25T07:39:21;95056.69;;;9.25;69.08
15405;BME280;7801;48.124;11.590;2023-03-25T07:41:52;95057.25;;;9.08;68.80
15405;BME280;7801;48.124;11.590;2023-03-25T07:44:17;95052.09;;;8.98;69.17
15405;BME280;7801;48.124;11.590;2023-03-25T07:46:46;95054.81;;;9.12;69.56
15405;BME280;7801;48.124;11.590;2023-03-25T07:49:12;95049.53;;;9.12;69.39
15405;BME280;7801;48.124;11.590;2023-03-25T07:51:38;95051.47;;;9.20;69.10
15405;BME280;7801;48.124;11.590;2023-03-25T07:54:03;95047.37;;;9.14;68.16
15405;BME280;7801;48.124;11.590;2023-03-25T07:56:29;95060.28;;;9.15;68.93
15405;BME280;7801;48.124;11.590;2023-03-25T07:58:54;95063.97;;;9.01;69.29
15405;BME280;7801;48.124;11.590;2023-03-25T08:01:19;95064.44;;;8.89;69.43
15405;BME280;7801;48.124;11.590;2023-03-25T08:03:45;95061.91;;;8.98;69.60
15405;BME280;7801;48.124;11.590;2023-03-25T08:06:10;95062.56;;;8.89;69.93
15405;BME280;7801;48.124;11.590;2023-03-25T08:08:36;95056.97;;;9.10;70.02
15405;BME280;7801;48.124;11.590;2023-03-25T08:11:01;95053.06;;;9.21;69.56
15405;BME280;7801;48.124;11.590;2023-03-25T08:13:27;95059.03;;;9.13;69.87
15405;BME280;7801;48.124;11.590;2023-03-25T08:15:52;95057.97;;;9.27;69.48
15405;BME280;7801;48.124;11.590;2023-03-25T08:18:18;95049.03;;;9.23;69.07
15405;BME280;7801;48.124;11.590;2023-03-25T08:20:43;95066.22;;;9.40;70.03
15405;BME280;7801;48.124;11.590;2023-03-25T08:23:08;95066.81;;;9.37;69.44
15405;BME280;7801;48.124;11.590;2023-03-25T08:25:45;95059.41;;;9.52;68.96
15405;BME280;7801;48.124;11.590;2023-03-25T08:28:13;95056.81;;;9.34;69.99
15405;BME280;7801;48.124;11.590;2023-03-25T08:30:41;95052.31;;;9.48;69.46
15405;BME280;7801;48.124;11.590;2023-03-25T08:33:07;95053.19;;;9.43;69.68
15405;BME280;7801;48.124;11.590;2023-03-25T08:35:35;95045.38;;;9.52;69.43
15405;BME280;7801;48.124;11.590;2023-03-25T08:38:01;95045.84;;;9.40;69.44
15405;BME280;7801;48.124;11.590;2023-03-25T08:40:29;95047.53;;;9.63;69.40
15405;BME280;7801;48.124;11.590;2023-03-25T08:42:55;95041.81;;;9.56;69.55
15405;BME280;7801;48.124;11.590;2023-03-25T08:45:21;95037.44;;;9.65;70.60
15405;BME280;7801;48.124;11.590;2023-03-25T08:47:46;95046.75;;;9.77;69.79
15405;BME280;7801;48.124;11.590;2023-03-25T08:50:12;95059.59;;;9.70;69.78
15405;BME280;7801;48.124;11.590;2023-03-25T08:52:37;95051.19;;;9.95;71.03
15405;BME280;7801;48.124;11.590;2023-03-25T08:55:03;95043.41;;;9.85;69.13
15405;BME280;7801;48.124;11.590;2023-03-25T08:57:29;95057.91;;;10.01;68.88
15405;BME280;7801;48.124;11.590;2023-03-25T08:59:54;95049.00;;;9.97;68.58
15405;BME280;7801;48.124;11.590;2023-03-25T09:02:20;95045.25;;;9.98;70.09
15405;BME280;7801;48.124;11.590;2023-03-25T09:04:47;95048.81;;;9.80;68.68
15405;BME280;7801;48.124;11.590;2023-03-25T09:07:12;95053.50;;;9.83;69.98
15405;BME280;7801;48.124;11.590;2023-03-25T09:09:39;95048.81;;;9.93;68.85
15405;BME280;7801;48.124;11.590;2023-03-25T09:12:05;95052.84;;;9.91;69.20
15405;BME280;7801;48.124;11.590;2023-03-25T09:14:30;95043.22;;;9.95;68.87
15405;BME280;7801;48.124;11.590;2023-03-25T09:16:56;95043.59;;;10.02;68.94
15405;BME280;7801;48.124;11.590;2023-03-25T09:19:21;95040.13;;;11.01;87.59
15405;BME280;7801;48.124;11.590;2023-03-25T09:21:47;95040.03;;;11.15;72.11
15405;BME280;7801;48.124;11.590;2023-03-25T09:24:12;95030.47;;;12.15;81.57
15405;BME280;7801;48.124;11.590;2023-03-25T09:26:38;95036.75;;;12.28;69.97
15405;BME280;7801;48.124;11.590;2023-03-25T09:29:03;95031.94;;;12.73;73.10
15405;BME280;7801;48.124;11.590;2023-03-25T09:31:28;95058.84;;;12.89;67.90
15405;BME280;7801;48.124;11.590;2023-03-25T09:33:54;95030.63;;;13.14;72.59
15405;BME280;7801;48.124;11.590;2023-03-25T09:36:20;95026.28;;;12.92;62.04
15405;BME280;7801;48.124;11.590;2023-03-25T09:38:46;95018.75;;;13.28;69.82
15405;BME280;7801;48.124;11.590;2023-03-25T09:46:53;95017.03;;;13.70;67.98
15405;BME280;7801;48.124;11.590;2023-03-25T09:49:22;95014.63;;;13.77;65.61
15405;BME280;7801;48.124;11.590;2023-03-25T09:51:50;95013.28;;;14.01;67.88
15405;BME280;7801;48.124;11.590;2023-03-25T09:56:48;95006.28;;;14.17;65.78
15405;BME280;7801;48.124;11.590;2023-03-25T09:59:20;95014.38;;;14.00;64.52
15405;BME280;7801;48.124;11.590;2023-03-25T10:10:12;94997.16;;;13.59;62.41
15405;BME280;7801;48.124;11.590;2023-03-25T10:21:12;94989.44;;;14.55;52.37
15405;BME280;7801;48.124;11.590;2023-03-25T10:26:39;94962.09;;;15.03;53.90
15405;BME280;7801;48.124;11.590;2023-03-25T10:29:11;94967.31;;;14.99;53.14
15405;BME280;7801;48.124;11.590;2023-03-25T10:31:42;94958.91;;;15.09;51.72
15405;BME280;7801;48.124;11.590;2023-03-25T10:34:13;94962.03;;;15.11;50.39
15405;BME280;7801;48.124;11.590;2023-03-25T10:36:53;94950.44;;;15.20;52.94
15405;BME280;7801;48.124;11.590;2023-03-25T10:39:23;94984.13;;;15.00;51.73
15405;BME280;7801;48.124;11.590;2023-03-25T10:41:53;94955.31;;;14.93;53.86
15405;BME280;7801;48.124;11.590;2023-03-25T10:44:21;94963.34;;;15.05;52.97
15405;BME280;7801;48.124;11.590;2023-03-25T10:47:01;94962.50;;;15.26;53.51
15405;BME280;7801;48.124;11.590;2023-03-25T10:49:29;94960.28;;;15.40;54.33
15405;BME280;7801;48.124;11.590;2023-03-25T10:51:55;94974.72;;;15.60;55.47
15405;BME280;7801;48.124;11.590;2023-03-25T10:54:27;94974.72;;;15.60;53.67
15405;BME280;7801;48.124;11.590;2023-03-25T10:56:55;94966.75;;;15.39;55.86
15405;BME280;7801;48.124;11.590;2023-03-25T10:59:28;94959.53;;;14.94;51.58
15405;BME280;7801;48.124;11.590;2023-03-25T11:01:56;94959.91;;;14.30;52.76
15405;BME280;7801;48.124;11.590;2023-03-25T11:04:33;94964.31;;;13.47;55.40
15405;BME280;7801;48.124;11.590;2023-03-25T11:07:01;94953.28;;;12.93;55.44
15405;BME280;7801;48.124;11.590;2023-03-25T11:09:30;94945.22;;;12.55;57.18
15405;BME280;7801;48.124;11.590;2023-03-25T11:12:01;94947.72;;;12.34;58.83
15405;BME280;7801;48.124;11.590;2023-03-25T11:14:28;94946.78;;;12.13;57.59
15405;BME280;7801;48.124;11.590;2023-03-25T11:16:59;94951.03;;;12.22;56.62
15405;BME280;7801;48.124;11.590;2023-03-25T11:19:29;94924.25;;;12.27;57.02
15405;BME280;7801;48.124;11.590;2023-03-25T11:22:02;94935.66;;;12.11;57.58
15405;BME280;7801;48.124;11.590;2023-03-25T11:24:33;94940.22;;;12.01;56.66
15405;BME280;7801;48.124;11.590;2023-03-25T11:27:06;94941.00;;;12.02;58.03
15405;BME280;7801;48.124;11.590;2023-03-25T11:29:34;94929.41;;;12.07;58.91
15405;BME280;7801;48.124;11.590;2023-03-25T11:32:11;94933.03;;;12.02;60.10
15405;BME280;7801;48.124;11.590;2023-03-25T11:34:38;94916.91;;;11.98;58.32
15405;BME280;7801;48.124;11.590;2023-03-25T11:39:37;94919.25;;;11.83;58.01
15405;BME280;7801;48.124;11.590;2023-03-25T11:44:42;94903.75;;;11.93;59.20
15405;BME280;7801;48.124;11.590;2023-03-25T11:47:18;94911.44;;;12.12;60.18
15405;BME280;7801;48.124;11.590;2023-03-25T11:49:47;94899.69;;;12.30;58.98
15405;BME280;7801;48.124;11.590;2023-03-25T11:52:19;94901.87;;;12.28;57.46
15405;BME280;7801;48.124;11.590;2023-03-25T11:54:46;94901.87;;;12.28;59.01
15405;BME280;7801;48.124;11.590;2023-03-25T11:57:18;94896.56;;;12.11;56.99
15405;BME280;7801;48.124;11.590;2023-03-25T11:59:46;94888.13;;;12.09;61.22
15405;BME280;7801;48.124;11.590;2023-03-25T12:02:25;94901.09;;;12.11;59.90
15405;BME280;7801;48.124;11.590;2023-03-25T12:07:22;94884.38;;;11.84;58.21
15405;BME280;7801;48.124;11.590;2023-03-25T12:10:03;94872.44;;;11.73;59.76
15405;BME280;7801;48.124;11.590;2023-03-25T12:15:36;94873.59;;;11.81;58.34
15405;BME280;7801;48.124;11.590;2023-03-25T12:21:01;94867.31;;;12.11;59.95
15405;BME280;7801;48.124;11.590;2023-03-25T12:23:50;94868.12;;;12.03;58.87
15405;BME280;7801;48.124;11.590;2023-03-25T12:27:20;94875.00;;;11.95;57.80
15405;BME280;7801;48.124;11.590;2023-03-25T12:29:40;94859.97;;;12.08;58.17
15405;BME280;7801;48.124;11.590;2023-03-25T12:38:12;94878.28;;;12.18;59.06
15405;BME280;7801;48.124;11.590;2023-03-25T12:41:02;94873.91;;;12.05;58.86
15405;BME280;7801;48.124;11.590;2023-03-25T12:49:14;94886.50;;;11.74;58.20
15405;BME280;7801;48.124;11.590;2023-03-25T12:52:02;94870.63;;;11.82;58.92
15405;BME280;7801;48.124;11.590;2023-03-25T12:55:22;94834.97;;;11.92;60.88
15405;BME280;7801;48.124;11.590;2023-03-25T13:00:51;94883.12;;;11.82;59.21
15405;BME280;7801;48.124;11.590;2023-03-25T13:06:19;94871.22;;;11.88;60.88
15405;BME280;7801;48.124;11.590;2023-03-25T13:09:09;94856.37;;;11.95;59.32
15405;BME280;7801;48.124;11.590;2023-03-25T13:11:37;94869.81;;;12.08;58.81
15405;BME280;7801;48.124;11.590;2023-03-25T13:14:15;94886.25;;;12.01;57.99
15405;BME280;7801;48.124;11.590;2023-03-25T13:16:44;94870.25;;;11.75;59.04
15405;BME280;7801;48.124;11.590;2023-03-25T13:19:15;94879.50;;;11.78;60.65
15405;BME280;7801;48.124;11.590;2023-03-25T13:21:48;94880.63;;;11.94;59.27
15405;BME280;7801;48.124;11.590;2023-03-25T13:24:24;94880.94;;;11.84;58.68
15405;BME280;7801;48.124;11.590;2023-03-25T13:26:52;94871.81;;;11.67;60.01
15405;BME280;7801;48.124;11.590;2023-03-25T13:29:43;94864.91;;;11.66;60.03
15405;BME280;7801;48.124;11.590;2023-03-25T13:32:21;94864.91;;;11.66;61.01
15405;BME280;7801;48.124;11.590;2023-03-25T13:35:14;94874.31;;;11.73;60.74
15405;BME280;7801;48.124;11.590;2023-03-25T13:37:45;94878.41;;;11.87;60.46
15405;BME280;7801;48.124;11.590;2023-03-25T13:40:26;94890.00;;;11.91;62.26
15405;BME280;7801;48.124;11.590;2023-03-25T13:43:04;94890.78;;;11.92;62.89
15405;BME280;7801;48.124;11.590;2023-03-25T13:45:46;94894.44;;;11.65;62.88
15405;BME280;7801;48.124;11.590;2023-03-25T13:48:18;94887.72;;;11.50;62.10
15405;BME280;7801;48.124;11.590;2023-03-25T13:50:47;94900.84;;;11.55;62.85
15405;BME280;7801;48.124;11.590;2023-03-25T14:01:39;94880.66;;;11.46;62.75
15405;BME280;7801;48.124;11.590;2023-03-25T14:04:16;94871.00;;;11.41;61.96
15405;BME280;7801;48.124;11.590;2023-03-25T14:12:06;94885.06;;;11.50;61.90
15405;BME280;7801;48.124;11.590;2023-03-25T14:14:39;94883.75;;;11.22;61.57
15405;BME280;7801;48.124;11.590;2023-03-25T14:17:06;94867.03;;;11.21;61.76
15405;BME280;7801;48.124;11.590;2023-03-25T14:19:35;94889.94;;;11.09;60.31
15405;BME280;7801;48.124;11.590;2023-03-25T14:22:21;94888.72;;;11.15;60.36
15405;BME280;7801;48.124;11.590;2023-03-25T14:24:48;94886.59;;;11.34;60.98
15405;BME280;7801;48.124;11.590;2023-03-25T14:27:29;94880.19;;;11.35;62.31
15405;BME280;7801;48.124;11.590;2023-03-25T14:30:02;94876.00;;;11.51;61.68
15405;BME280;7801;48.124;11.590;2023-03-25T14:32:36;94866.91;;;11.44;61.40
15405;BME280;7801;48.124;11.590;2023-03-25T14:38:11;94864.59;;;11.51;60.57
15405;BME280;7801;48.124;11.590;2023-03-25T14:43:26;94852.28;;;11.63;60.73
15405;BME280;7801;48.124;11.590;2023-03-25T14:48:43;94861.50;;;11.57;60.74
15405;BME280;7801;48.124;11.590;2023-03-25T14:51:21;94860.69;;;11.65;58.95
15405;BME280;7801;48.124;11.590;2023-03-25T14:56:58;94863.25;;;11.88;59.22
15405;BME280;7801;48.124;11.590;2023-03-25T14:59:57;94839.34;;;11.79;60.12
15405;BME280;7801;48.124;11.590;2023-03-25T15:02:27;94838.41;;;11.84;59.11
15405;BME280;7801;48.124;11.590;2023-03-25T15:05:11;94852.75;;;11.74;59.06
15405;BME280;7801;48.124;11.590;2023-03-25T15:07:53;94864.91;;;11.49;60.60
15405;BME280;7801;48.124;11.590;2023-03-25T15:10:29;94848.06;;;11.62;59.01
15405;BME280;7801;48.124;11.590;2023-03-25T15:15:53;94847.94;;;11.85;60.03
15405;BME280;7801;48.124;11.590;2023-03-25T15:23:45;94854.97;;;11.98;58.13